sensor_id;sensor_type;location;lat;lon;timestamp;temperature;humidity
80153;DHT22;69475;51.196;4.542;2023-04-25T00:01:13;18.70;51.80
80153;DHT22;69475;51.196;4.542;2023-04-25T00:03:39;18.60;51.80
80153;DHT22;69475;51.196;4.542;2023-04-25T00:06:06;18.60;51.90
80153;DHT22;69475;51.196;4.542;2023-04-25T00:08:32;18.60;51.90
80153;DHT22;69475;51.196;4.542;2023-04-25T00:10:58;18.50;52.00
80153;DHT22;69475;51.196;4.542;2023-04-25T00:13:24;18.50;52.20
80153;DHT22;69475;51.196;4.542;2023-04-25T00:15:51;18.40;52.20
80153;DHT22;69475;51.196;4.542;2023-04-25T00:18:19;18.40;52.40
80153;DHT22;69475;51.196;4.542;2023-04-25T00:20:44;18.40;52.40
80153;DHT22;69475;51.196;4.542;2023-04-25T00:23:13;18.30;52.40
80153;DHT22;69475;51.196;4.542;2023-04-25T00:25:47;18.30;52.50
80153;DHT22;69475;51.196;4.542;2023-04-25T00:28:13;18.30;52.40
80153;DHT22;69475;51.196;4.542;2023-04-25T00:30:39;18.30;52.60
80153;DHT22;69475;51.196;4.542;2023-04-25T00:33:05;18.30;52.50
80153;DHT22;69475;51.196;4.542;2023-04-25T00:35:32;18.30;52.50
80153;DHT22;69475;51.196;4.542;2023-04-25T00:37:57;18.30;52.40
80153;DHT22;69475;51.196;4.542;2023-04-25T00:40:23;18.20;52.40
80153;DHT22;69475;51.196;4.542;2023-04-25T00:42:50;18.20;52.40
80153;DHT22;69475;51.196;4.542;2023-04-25T00:45:17;18.20;52.50
80153;DHT22;69475;51.196;4.542;2023-04-25T00:47:43;18.20;52.50
80153;DHT22;69475;51.196;4.542;2023-04-25T00:50:09;18.20;52.50
80153;DHT22;69475;51.196;4.542;2023-04-25T00:52:41;18.20;52.60
80153;DHT22;69475;51.196;4.542;2023-04-25T00:55:08;18.20;52.50
80153;DHT22;69475;51.196;4.542;2023-04-25T00:57:35;18.20;52.40
80153;DHT22;69475;51.196;4.542;2023-04-25T01:00:03;18.20;52.50
80153;DHT22;69475;51.196;4.542;2023-04-25T01:02:30;18.20;52.40
80153;DHT22;69475;51.196;4.542;2023-04-25T01:04:57;18.20;52.40
80153;DHT22;69475;51.196;4.542;2023-04-25T01:07:23;18.20;52.40
80153;DHT22;69475;51.196;4.542;2023-04-25T01:09:51;18.20;52.50
80153;DHT22;69475;51.196;4.542;2023-04-25T01:12:17;18.10;52.40
80153;DHT22;69475;51.196;4.542;2023-04-25T01:14:42;18.10;52.40
80153;DHT22;69475;51.196;4.542;2023-04-25T01:17:09;18.10;52.40
80153;DHT22;69475;51.196;4.542;2023-04-25T01:19:35;18.10;52.40
80153;DHT22;69475;51.196;4.542;2023-04-25T01:22:01;18.00;52.40
80153;DHT22;69475;51.196;4.542;2023-04-25T01:24:27;18.00;52.40
80153;DHT22;69475;51.196;4.542;2023-04-25T01:26:53;18.00;52.50
80153;DHT22;69475;51.196;4.542;2023-04-25T01:29:21;18.00;52.60
80153;DHT22;69475;51.196;4.542;2023-04-25T01:31:47;18.00;52.50
80153;DHT22;69475;51.196;4.542;2023-04-25T01:34:13;18.00;52.50
80153;DHT22;69475;51.196;4.542;2023-04-25T01:36:39;17.90;52.50
80153;DHT22;69475;51.196;4.542;2023-04-25T01:39:06;17.90;52.50
80153;DHT22;69475;51.196;4.542;2023-04-25T01:41:33;17.90;52.50
80153;DHT22;69475;51.196;4.542;2023-04-25T01:44:00;17.90;52.50
80153;DHT22;69475;51.196;4.542;2023-04-25T01:46:27;17.90;52.60
80153;DHT22;69475;51.196;4.542;2023-04-25T01:48:52;17.90;52.50
80153;DHT22;69475;51.196;4.542;2023-04-25T01:51:19;17.90;52.60
80153;DHT22;69475;51.196;4.542;2023-04-25T01:53:45;17.90;52.60
80153;DHT22;69475;51.196;4.542;2023-04-25T01:56:11;17.80;52.60
80153;DHT22;69475;51.196;4.542;2023-04-25T01:58:36;17.90;52.60
80153;DHT22;69475;51.196;4.542;2023-04-25T02:01:02;17.80;52.60
80153;DHT22;69475;51.196;4.542;2023-04-25T02:03:28;17.80;52.60
80153;DHT22;69475;51.196;4.542;2023-04-25T02:05:54;17.80;52.60
80153;DHT22;69475;51.196;4.542;2023-04-25T02:08:20;17.80;52.60
80153;DHT22;69475;51.196;4.542;2023-04-25T02:10:46;17.70;52.70
80153;DHT22;69475;51.196;4.542;2023-04-25T02:13:11;17.70;52.60
80153;DHT22;69475;51.196;4.542;2023-04-25T02:15:37;17.70;52.60
80153;DHT22;69475;51.196;4.542;2023-04-25T02:18:03;17.70;52.70
80153;DHT22;69475;51.196;4.542;2023-04-25T02:20:29;17.70;52.70
80153;DHT22;69475;51.196;4.542;2023-04-25T02:22:56;17.70;52.70
80153;DHT22;69475;51.196;4.542;2023-04-25T02:25:21;17.60;52.60
80153;DHT22;69475;51.196;4.542;2023-04-25T02:27:48;17.60;52.70
80153;DHT22;69475;51.196;4.542;2023-04-25T02:30:14;17.60;52.60
80153;DHT22;69475;51.196;4.542;2023-04-25T02:32:41;17.60;52.70
80153;DHT22;69475;51.196;4.542;2023-04-25T02:35:07;17.60;52.60
80153;DHT22;69475;51.196;4.542;2023-04-25T02:37:34;17.60;52.60
80153;DHT22;69475;51.196;4.542;2023-04-25T02:40:00;17.60;52.70
80153;DHT22;69475;51.196;4.542;2023-04-25T02:42:26;17.60;52.60
80153;DHT22;69475;51.196;4.542;2023-04-25T02:44:52;17.50;52.80
80153;DHT22;69475;51.196;4.542;2023-04-25T02:47:18;17.50;52.80
80153;DHT22;69475;51.196;4.542;2023-04-25T02:49:43;17.50;52.80
80153;DHT22;69475;51.196;4.542;2023-04-25T02:52:10;17.40;52.90
80153;DHT22;69475;51.196;4.542;2023-04-25T02:54:36;17.40;52.90
80153;DHT22;69475;51.196;4.542;2023-04-25T02:57:02;17.40;52.80
80153;DHT22;69475;51.196;4.542;2023-04-25T02:59:28;17.40;52.90
80153;DHT22;69475;51.196;4.542;2023-04-25T03:01:54;17.40;52.90
80153;DHT22;69475;51.196;4.542;2023-04-25T03:04:20;17.40;53.00
80153;DHT22;69475;51.196;4.542;2023-04-25T03:06:46;17.40;53.00
80153;DHT22;69475;51.196;4.542;2023-04-25T03:09:12;17.40;53.00
80153;DHT22;69475;51.196;4.542;2023-04-25T03:11:40;17.40;53.10
80153;DHT22;69475;51.196;4.542;2023-04-25T03:14:06;17.40;53.10
80153;DHT22;69475;51.196;4.542;2023-04-25T03:16:32;17.30;53.10
80153;DHT22;69475;51.196;4.542;2023-04-25T03:18:57;17.30;53.10
80153;DHT22;69475;51.196;4.542;2023-04-25T03:21:23;17.30;53.20
80153;DHT22;69475;51.196;4.542;2023-04-25T03:23:49;17.30;53.30
80153;DHT22;69475;51.196;4.542;2023-04-25T03:26:15;17.30;53.40
80153;DHT22;69475;51.196;4.542;2023-04-25T03:28:41;17.30;53.30
80153;DHT22;69475;51.196;4.542;2023-04-25T03:31:06;17.30;53.40
80153;DHT22;69475;51.196;4.542;2023-04-25T03:33:32;17.20;53.30
80153;DHT22;69475;51.196;4.542;2023-04-25T03:35:58;17.20;53.30
80153;DHT22;69475;51.196;4.542;2023-04-25T03:38:23;17.20;53.30
80153;DHT22;69475;51.196;4.542;2023-04-25T03:40:50;17.20;53.30
80153;DHT22;69475;51.196;4.542;2023-04-25T03:43:16;17.20;53.40
80153;DHT22;69475;51.196;4.542;2023-04-25T03:45:42;17.10;53.40
80153;DHT22;69475;51.196;4.542;2023-04-25T03:48:08;17.10;53.40
80153;DHT22;69475;51.196;4.542;2023-04-25T03:50:34;17.10;53.30
80153;DHT22;69475;51.196;4.542;2023-04-25T03:52:59;17.10;53.40
80153;DHT22;69475;51.196;4.542;2023-04-25T03:55:25;17.10;53.40
80153;DHT22;69475;51.196;4.542;2023-04-25T03:57:51;17.10;53.50
80153;DHT22;69475;51.196;4.542;2023-04-25T04:00:16;17.00;53.50
80153;DHT22;69475;51.196;4.542;2023-04-25T04:02:42;17.00;53.40
80153;DHT22;69475;51.196;4.542;2023-04-25T04:05:08;17.00;53.40
80153;DHT22;69475;51.196;4.542;2023-04-25T04:07:35;17.00;53.40
80153;DHT22;69475;51.196;4.542;2023-04-25T04:10:09;17.10;53.60
80153;DHT22;69475;51.196;4.542;2023-04-25T04:12:36;17.00;53.60
80153;DHT22;69475;51.196;4.542;2023-04-25T04:15:05;17.10;53.30
80153;DHT22;69475;51.196;4.542;2023-04-25T04:17:32;17.40;52.80
80153;DHT22;69475;51.196;4.542;2023-04-25T04:19:58;17.40;52.70
80153;DHT22;69475;51.196;4.542;2023-04-25T04:22:24;17.50;52.50
80153;DHT22;69475;51.196;4.542;2023-04-25T04:24:50;17.60;52.20
80153;DHT22;69475;51.196;4.542;2023-04-25T04:27:17;17.80;51.90
80153;DHT22;69475;51.196;4.542;2023-04-25T04:29:43;17.90;51.60
80153;DHT22;69475;51.196;4.542;2023-04-25T04:32:09;18.10;51.60
80153;DHT22;69475;51.196;4.542;2023-04-25T04:34:35;18.20;51.20
80153;DHT22;69475;51.196;4.542;2023-04-25T04:37:01;18.50;51.10
80153;DHT22;69475;51.196;4.542;2023-04-25T04:39:26;18.70;50.90
80153;DHT22;69475;51.196;4.542;2023-04-25T04:41:52;18.90;50.70
80153;DHT22;69475;51.196;4.542;2023-04-25T04:44:18;19.00;50.40
80153;DHT22;69475;51.196;4.542;2023-04-25T04:46:45;19.20;50.10
80153;DHT22;69475;51.196;4.542;2023-04-25T04:49:12;19.30;50.00
80153;DHT22;69475;51.196;4.542;2023-04-25T04:51:39;19.40;49.90
80153;DHT22;69475;51.196;4.542;2023-04-25T04:54:06;19.50;49.60
80153;DHT22;69475;51.196;4.542;2023-04-25T04:56:32;19.60;50.20
80153;DHT22;69475;51.196;4.542;2023-04-25T04:58:58;19.70;50.00
80153;DHT22;69475;51.196;4.542;2023-04-25T05:01:24;19.80;50.00
80153;DHT22;69475;51.196;4.542;2023-04-25T05:03:50;19.80;49.80
80153;DHT22;69475;51.196;4.542;2023-04-25T05:06:17;19.80;49.80
80153;DHT22;69475;51.196;4.542;2023-04-25T05:08:43;19.80;49.80
80153;DHT22;69475;51.196;4.542;2023-04-25T05:11:09;19.90;49.80
80153;DHT22;69475;51.196;4.542;2023-04-25T05:13:35;19.90;50.00
80153;DHT22;69475;51.196;4.542;2023-04-25T05:16:00;19.90;50.00
80153;DHT22;69475;51.196;4.542;2023-04-25T05:18:26;19.90;50.10
80153;DHT22;69475;51.196;4.542;2023-04-25T05:20:52;19.80;50.80
80153;DHT22;69475;51.196;4.542;2023-04-25T05:23:18;19.80;51.00
80153;DHT22;69475;51.196;4.542;2023-04-25T05:25:44;19.80;51.10
80153;DHT22;69475;51.196;4.542;2023-04-25T05:28:12;19.80;51.20
80153;DHT22;69475;51.196;4.542;2023-04-25T05:30:37;19.90;50.90
80153;DHT22;69475;51.196;4.542;2023-04-25T05:33:03;19.90;50.80
80153;DHT22;69475;51.196;4.542;2023-04-25T05:35:29;19.90;50.30
80153;DHT22;69475;51.196;4.542;2023-04-25T05:37:55;20.00;50.40
80153;DHT22;69475;51.196;4.542;2023-04-25T05:40:21;19.90;50.70
80153;DHT22;69475;51.196;4.542;2023-04-25T05:42:46;19.90;50.70
80153;DHT22;69475;51.196;4.542;2023-04-25T05:45:12;19.90;50.40
80153;DHT22;69475;51.196;4.542;2023-04-25T05:47:38;19.90;50.30
80153;DHT22;69475;51.196;4.542;2023-04-25T05:50:04;20.00;50.00
80153;DHT22;69475;51.196;4.542;2023-04-25T05:52:30;20.00;49.50
80153;DHT22;69475;51.196;4.542;2023-04-25T05:54:56;20.00;49.40
80153;DHT22;69475;51.196;4.542;2023-04-25T05:57:26;20.10;49.20
80153;DHT22;69475;51.196;4.542;2023-04-25T05:59:53;20.00;49.20
80153;DHT22;69475;51.196;4.542;2023-04-25T06:02:20;20.00;49.00
80153;DHT22;69475;51.196;4.542;2023-04-25T06:04:47;20.00;48.90
80153;DHT22;69475;51.196;4.542;2023-04-25T06:07:13;20.10;48.80
80153;DHT22;69475;51.196;4.542;2023-04-25T06:09:39;20.10;48.70
80153;DHT22;69475;51.196;4.542;2023-04-25T06:12:06;20.10;48.50
80153;DHT22;69475;51.196;4.542;2023-04-25T06:14:32;20.10;48.00
80153;DHT22;69475;51.196;4.542;2023-04-25T06:16:58;20.10;48.40
80153;DHT22;69475;51.196;4.542;2023-04-25T06:19:24;20.10;48.00
80153;DHT22;69475;51.196;4.542;2023-04-25T06:21:49;20.10;47.80
80153;DHT22;69475;51.196;4.542;2023-04-25T06:24:15;20.20;47.70
80153;DHT22;69475;51.196;4.542;2023-04-25T06:26:41;20.20;47.80
80153;DHT22;69475;51.196;4.542;2023-04-25T06:29:07;20.30;47.80
80153;DHT22;69475;51.196;4.542;2023-04-25T06:31:32;20.30;47.80
80153;DHT22;69475;51.196;4.542;2023-04-25T06:33:59;20.40;47.80
80153;DHT22;69475;51.196;4.542;2023-04-25T06:36:24;20.40;47.80
80153;DHT22;69475;51.196;4.542;2023-04-25T06:38:51;20.40;47.60
80153;DHT22;69475;51.196;4.542;2023-04-25T06:41:18;20.50;47.60
80153;DHT22;69475;51.196;4.542;2023-04-25T06:43:44;20.60;48.50
80153;DHT22;69475;51.196;4.542;2023-04-25T06:46:10;20.60;47.30
80153;DHT22;69475;51.196;4.542;2023-04-25T06:48:36;20.70;47.10
80153;DHT22;69475;51.196;4.542;2023-04-25T06:51:02;20.70;47.00
80153;DHT22;69475;51.196;4.542;2023-04-25T06:53:28;20.70;46.90
80153;DHT22;69475;51.196;4.542;2023-04-25T06:55:54;20.70;47.00
80153;DHT22;69475;51.196;4.542;2023-04-25T06:58:20;20.70;47.10
80153;DHT22;69475;51.196;4.542;2023-04-25T07:00:46;20.80;47.00
80153;DHT22;69475;51.196;4.542;2023-04-25T07:03:11;20.80;47.00
80153;DHT22;69475;51.196;4.542;2023-04-25T07:05:37;20.70;47.00
80153;DHT22;69475;51.196;4.542;2023-04-25T07:08:03;20.70;47.20
80153;DHT22;69475;51.196;4.542;2023-04-25T07:10:29;20.70;47.20
80153;DHT22;69475;51.196;4.542;2023-04-25T07:12:55;20.70;47.00
80153;DHT22;69475;51.196;4.542;2023-04-25T07:15:20;20.70;47.00
80153;DHT22;69475;51.196;4.542;2023-04-25T07:17:46;20.70;47.00
80153;DHT22;69475;51.196;4.542;2023-04-25T07:20:12;20.70;47.10
80153;DHT22;69475;51.196;4.542;2023-04-25T07:22:38;20.70;47.00
80153;DHT22;69475;51.196;4.542;2023-04-25T07:25:04;20.60;47.10
80153;DHT22;69475;51.196;4.542;2023-04-25T07:27:30;20.60;47.20
80153;DHT22;69475;51.196;4.542;2023-04-25T07:29:56;20.60;47.20
80153;DHT22;69475;51.196;4.542;2023-04-25T07:32:22;20.60;47.20
80153;DHT22;69475;51.196;4.542;2023-04-25T07:34:48;20.60;47.20
80153;DHT22;69475;51.196;4.542;2023-04-25T07:37:14;20.60;47.20
80153;DHT22;69475;51.196;4.542;2023-04-25T07:39:40;20.50;47.20
80153;DHT22;69475;51.196;4.542;2023-04-25T07:42:06;20.50;47.40
80153;DHT22;69475;51.196;4.542;2023-04-25T07:44:34;20.50;47.40
80153;DHT22;69475;51.196;4.542;2023-04-25T07:47:06;20.50;47.40
80153;DHT22;69475;51.196;4.542;2023-04-25T07:49:33;20.40;47.40
80153;DHT22;69475;51.196;4.542;2023-04-25T07:52:00;20.40;47.40
80153;DHT22;69475;51.196;4.542;2023-04-25T07:54:26;20.40;47.40
80153;DHT22;69475;51.196;4.542;2023-04-25T07:56:51;20.40;47.40
80153;DHT22;69475;51.196;4.542;2023-04-25T07:59:17;20.50;47.30
80153;DHT22;69475;51.196;4.542;2023-04-25T08:01:43;20.40;47.40
80153;DHT22;69475;51.196;4.542;2023-04-25T08:04:08;20.30;47.60
80153;DHT22;69475;51.196;4.542;2023-04-25T08:06:34;20.30;47.60
80153;DHT22;69475;51.196;4.542;2023-04-25T08:09:00;20.30;47.80
80153;DHT22;69475;51.196;4.542;2023-04-25T08:11:25;20.20;47.90
80153;DHT22;69475;51.196;4.542;2023-04-25T08:13:51;20.30;47.80
80153;DHT22;69475;51.196;4.542;2023-04-25T08:16:17;20.30;47.80
80153;DHT22;69475;51.196;4.542;2023-04-25T08:18:43;20.10;48.00
80153;DHT22;69475;51.196;4.542;2023-04-25T08:21:08;20.00;48.40
80153;DHT22;69475;51.196;4.542;2023-04-25T08:23:37;19.80;48.90
80153;DHT22;69475;51.196;4.542;2023-04-25T08:26:02;19.70;48.90
80153;DHT22;69475;51.196;4.542;2023-04-25T08:28:28;19.60;49.20
80153;DHT22;69475;51.196;4.542;2023-04-25T08:30:54;19.50;48.90
80153;DHT22;69475;51.196;4.542;2023-04-25T08:33:20;19.50;50.00
80153;DHT22;69475;51.196;4.542;2023-04-25T08:35:45;19.60;48.70
80153;DHT22;69475;51.196;4.542;2023-04-25T08:38:11;19.70;48.50
80153;DHT22;69475;51.196;4.542;2023-04-25T08:40:38;19.70;48.30
80153;DHT22;69475;51.196;4.542;2023-04-25T08:43:06;19.70;48.00
80153;DHT22;69475;51.196;4.542;2023-04-25T08:45:39;19.80;47.90
80153;DHT22;69475;51.196;4.542;2023-04-25T08:48:11;19.70;48.20
80153;DHT22;69475;51.196;4.542;2023-04-25T08:50:45;19.80;48.00
80153;DHT22;69475;51.196;4.542;2023-04-25T08:53:16;19.90;47.90
80153;DHT22;69475;51.196;4.542;2023-04-25T08:55:45;19.90;47.70
80153;DHT22;69475;51.196;4.542;2023-04-25T08:58:12;19.90;47.50
80153;DHT22;69475;51.196;4.542;2023-04-25T09:00:38;19.90;47.50
80153;DHT22;69475;51.196;4.542;2023-04-25T09:03:04;19.90;47.70
80153;DHT22;69475;51.196;4.542;2023-04-25T09:05:34;20.00;47.50
80153;DHT22;69475;51.196;4.542;2023-04-25T09:08:01;20.00;47.40
80153;DHT22;69475;51.196;4.542;2023-04-25T09:10:27;19.90;47.20
80153;DHT22;69475;51.196;4.542;2023-04-25T09:13:12;20.00;47.10
80153;DHT22;69475;51.196;4.542;2023-04-25T09:15:52;20.00;46.90
80153;DHT22;69475;51.196;4.542;2023-04-25T09:18:31;20.00;46.70
80153;DHT22;69475;51.196;4.542;2023-04-25T09:21:11;20.00;46.80
80153;DHT22;69475;51.196;4.542;2023-04-25T09:23:45;20.10;46.70
80153;DHT22;69475;51.196;4.542;2023-04-25T09:26:15;20.10;46.70
80153;DHT22;69475;51.196;4.542;2023-04-25T09:28:42;20.10;46.70
80153;DHT22;69475;51.196;4.542;2023-04-25T09:31:10;20.10;46.40
80153;DHT22;69475;51.196;4.542;2023-04-25T09:33:37;20.20;46.20
80153;DHT22;69475;51.196;4.542;2023-04-25T09:36:07;20.20;46.10
80153;DHT22;69475;51.196;4.542;2023-04-25T09:38:46;20.10;46.30
80153;DHT22;69475;51.196;4.542;2023-04-25T09:41:12;20.20;46.40
80153;DHT22;69475;51.196;4.542;2023-04-25T09:43:38;20.10;46.30
80153;DHT22;69475;51.196;4.542;2023-04-25T09:46:09;20.00;46.50
80153;DHT22;69475;51.196;4.542;2023-04-25T09:48:36;20.00;46.40
80153;DHT22;69475;51.196;4.542;2023-04-25T09:51:13;19.90;46.50
80153;DHT22;69475;51.196;4.542;2023-04-25T09:53:41;19.90;46.40
80153;DHT22;69475;51.196;4.542;2023-04-25T09:56:08;20.00;46.60
80153;DHT22;69475;51.196;4.542;2023-04-25T09:58:36;20.00;46.60
80153;DHT22;69475;51.196;4.542;2023-04-25T10:01:04;20.00;46.50
80153;DHT22;69475;51.196;4.542;2023-04-25T10:03:33;20.00;46.20
80153;DHT22;69475;51.196;4.542;2023-04-25T10:06:00;20.00;46.10
80153;DHT22;69475;51.196;4.542;2023-04-25T10:08:32;20.00;46.20
80153;DHT22;69475;51.196;4.542;2023-04-25T10:11:07;20.00;46.50
80153;DHT22;69475;51.196;4.542;2023-04-25T10:13:34;19.90;46.40
80153;DHT22;69475;51.196;4.542;2023-04-25T10:16:04;20.00;46.30
80153;DHT22;69475;51.196;4.542;2023-04-25T10:18:31;20.10;46.10
80153;DHT22;69475;51.196;4.542;2023-04-25T10:21:03;20.00;46.20
80153;DHT22;69475;51.196;4.542;2023-04-25T10:23:31;20.00;46.40
80153;DHT22;69475;51.196;4.542;2023-04-25T10:25:57;19.90;46.50
80153;DHT22;69475;51.196;4.542;2023-04-25T10:28:23;19.80;46.50
80153;DHT22;69475;51.196;4.542;2023-04-25T10:31:00;19.80;46.60
80153;DHT22;69475;51.196;4.542;2023-04-25T10:33:35;19.80;46.60
80153;DHT22;69475;51.196;4.542;2023-04-25T10:36:12;19.80;46.50
80153;DHT22;69475;51.196;4.542;2023-04-25T10:38:39;19.70;46.70
80153;DHT22;69475;51.196;4.542;2023-04-25T10:41:07;19.70;46.70
80153;DHT22;69475;51.196;4.542;2023-04-25T10:43:44;19.70;46.40
80153;DHT22;69475;51.196;4.542;2023-04-25T10:48:52;19.90;46.20
80153;DHT22;69475;51.196;4.542;2023-04-25T10:51:25;19.90;45.90
80153;DHT22;69475;51.196;4.542;2023-04-25T10:56:27;20.00;45.60
80153;DHT22;69475;51.196;4.542;2023-04-25T10:59:14;20.10;45.60
80153;DHT22;69475;51.196;4.542;2023-04-25T11:01:45;20.00;45.60
80153;DHT22;69475;51.196;4.542;2023-04-25T11:04:23;19.90;45.70
80153;DHT22;69475;51.196;4.542;2023-04-25T11:09:24;19.80;46.40
80153;DHT22;69475;51.196;4.542;2023-04-25T11:11:57;19.70;46.30
80153;DHT22;69475;51.196;4.542;2023-04-25T11:14:23;19.70;46.30
80153;DHT22;69475;51.196;4.542;2023-04-25T11:16:56;19.70;46.40
80153;DHT22;69475;51.196;4.542;2023-04-25T11:19:24;19.70;46.30
80153;DHT22;69475;51.196;4.542;2023-04-25T11:21:50;19.70;46.30
80153;DHT22;69475;51.196;4.542;2023-04-25T11:24:20;19.80;46.00
80153;DHT22;69475;51.196;4.542;2023-04-25T11:26:50;19.80;46.00
80153;DHT22;69475;51.196;4.542;2023-04-25T11:29:16;19.70;46.00
80153;DHT22;69475;51.196;4.542;2023-04-25T11:31:44;19.70;46.20
80153;DHT22;69475;51.196;4.542;2023-04-25T11:34:11;19.50;46.20
80153;DHT22;69475;51.196;4.542;2023-04-25T11:36:38;19.50;46.30
80153;DHT22;69475;51.196;4.542;2023-04-25T11:39:04;19.40;46.50
80153;DHT22;69475;51.196;4.542;2023-04-25T11:41:31;19.40;46.50
80153;DHT22;69475;51.196;4.542;2023-04-25T11:43:57;19.40;46.60
80153;DHT22;69475;51.196;4.542;2023-04-25T11:46:23;19.50;46.60
80153;DHT22;69475;51.196;4.542;2023-04-25T11:48:48;19.50;46.30
80153;DHT22;69475;51.196;4.542;2023-04-25T11:51:15;19.50;46.40
80153;DHT22;69475;51.196;4.542;2023-04-25T11:53:44;19.50;46.20
80153;DHT22;69475;51.196;4.542;2023-04-25T11:56:10;19.50;46.10
80153;DHT22;69475;51.196;4.542;2023-04-25T11:59:05;19.60;46.00
80153;DHT22;69475;51.196;4.542;2023-04-25T12:01:32;19.60;46.10
80153;DHT22;69475;51.196;4.542;2023-04-25T12:03:58;19.50;46.10
80153;DHT22;69475;51.196;4.542;2023-04-25T12:06:38;19.40;46.10
80153;DHT22;69475;51.196;4.542;2023-04-25T12:09:10;19.40;46.30
80153;DHT22;69475;51.196;4.542;2023-04-25T12:11:53;19.40;46.40
80153;DHT22;69475;51.196;4.542;2023-04-25T12:14:29;19.40;46.20
80153;DHT22;69475;51.196;4.542;2023-04-25T12:17:00;19.40;46.10
80153;DHT22;69475;51.196;4.542;2023-04-25T12:19:30;19.40;46.00
80153;DHT22;69475;51.196;4.542;2023-04-25T12:21:57;19.40;45.90
80153;DHT22;69475;51.196;4.542;2023-04-25T12:24:24;19.50;46.10
80153;DHT22;69475;51.196;4.542;2023-04-25T12:27:03;19.50;46.10
80153;DHT22;69475;51.196;4.542;2023-04-25T12:29:31;19.50;45.90
80153;DHT22;69475;51.196;4.542;2023-04-25T12:31:57;19.60;45.80
80153;DHT22;69475;51.196;4.542;2023-04-25T12:34:24;19.60;45.70
80153;DHT22;69475;51.196;4.542;2023-04-25T12:36:51;19.60;45.60
80153;DHT22;69475;51.196;4.542;2023-04-25T12:39:22;19.60;45.60
80153;DHT22;69475;51.196;4.542;2023-04-25T12:41:52;19.60;45.60
80153;DHT22;69475;51.196;4.542;2023-04-25T12:44:19;19.50;45.60
80153;DHT22;69475;51.196;4.542;2023-04-25T12:46:45;19.50;45.90
80153;DHT22;69475;51.196;4.542;2023-04-25T12:49:11;19.50;45.90
80153;DHT22;69475;51.196;4.542;2023-04-25T12:51:37;19.40;46.80
80153;DHT22;69475;51.196;4.542;2023-04-25T12:54:05;19.50;45.80
80153;DHT22;69475;51.196;4.542;2023-04-25T12:56:31;19.50;45.80
80153;DHT22;69475;51.196;4.542;2023-04-25T12:58:57;19.50;45.80
80153;DHT22;69475;51.196;4.542;2023-04-25T13:01:24;19.50;45.80
80153;DHT22;69475;51.196;4.542;2023-04-25T13:03:50;19.40;45.70
80153;DHT22;69475;51.196;4.542;2023-04-25T13:06:17;19.30;45.90
80153;DHT22;69475;51.196;4.542;2023-04-25T13:08:43;19.30;45.90
80153;DHT22;69475;51.196;4.542;2023-04-25T13:11:09;19.30;46.00
80153;DHT22;69475;51.196;4.542;2023-04-25T13:13:34;19.30;45.90
80153;DHT22;69475;51.196;4.542;2023-04-25T13:16:01;19.30;45.90
80153;DHT22;69475;51.196;4.542;2023-04-25T13:18:30;19.30;45.60
80153;DHT22;69475;51.196;4.542;2023-04-25T13:20:57;19.30;46.00
80153;DHT22;69475;51.196;4.542;2023-04-25T13:23:25;19.30;45.90
80153;DHT22;69475;51.196;4.542;2023-04-25T13:25:51;19.30;45.80
80153;DHT22;69475;51.196;4.542;2023-04-25T13:28:17;19.30;45.90
80153;DHT22;69475;51.196;4.542;2023-04-25T13:30:43;19.30;45.70
80153;DHT22;69475;51.196;4.542;2023-04-25T13:33:09;19.30;45.80
80153;DHT22;69475;51.196;4.542;2023-04-25T13:35:37;19.30;45.70
80153;DHT22;69475;51.196;4.542;2023-04-25T13:38:03;19.40;45.80
80153;DHT22;69475;51.196;4.542;2023-04-25T13:40:29;19.30;45.70
80153;DHT22;69475;51.196;4.542;2023-04-25T13:42:55;19.30;45.70
80153;DHT22;69475;51.196;4.542;2023-04-25T13:45:21;19.20;45.80
80153;DHT22;69475;51.196;4.542;2023-04-25T13:47:47;19.20;46.00
80153;DHT22;69475;51.196;4.542;2023-04-25T13:50:13;19.10;46.00
80153;DHT22;69475;51.196;4.542;2023-04-25T13:52:39;19.10;46.10
80153;DHT22;69475;51.196;4.542;2023-04-25T13:55:06;19.10;46.20
80153;DHT22;69475;51.196;4.542;2023-04-25T13:57:33;19.10;45.50
80153;DHT22;69475;51.196;4.542;2023-04-25T13:59:59;19.10;44.90
80153;DHT22;69475;51.196;4.542;2023-04-25T14:02:30;19.00;45.70
80153;DHT22;69475;51.196;4.542;2023-04-25T14:04:56;18.90;45.70
80153;DHT22;69475;51.196;4.542;2023-04-25T14:07:21;19.00;45.60
80153;DHT22;69475;51.196;4.542;2023-04-25T14:09:47;19.00;46.50
80153;DHT22;69475;51.196;4.542;2023-04-25T14:12:13;19.10;45.20
80153;DHT22;69475;51.196;4.542;2023-04-25T14:14:38;19.10;45.00
80153;DHT22;69475;51.196;4.542;2023-04-25T14:17:04;19.00;44.70
80153;DHT22;69475;51.196;4.542;2023-04-25T14:19:30;19.00;44.30
80153;DHT22;69475;51.196;4.542;2023-04-25T14:21:56;19.00;44.10
80153;DHT22;69475;51.196;4.542;2023-04-25T14:24:21;19.10;43.70
80153;DHT22;69475;51.196;4.542;2023-04-25T14:26:47;19.10;43.40
80153;DHT22;69475;51.196;4.542;2023-04-25T14:29:13;19.10;43.30
80153;DHT22;69475;51.196;4.542;2023-04-25T14:31:39;19.20;43.10
80153;DHT22;69475;51.196;4.542;2023-04-25T14:34:06;19.20;42.90
80153;DHT22;69475;51.196;4.542;2023-04-25T14:36:32;19.30;42.80
80153;DHT22;69475;51.196;4.542;2023-04-25T14:38:58;19.30;42.80
80153;DHT22;69475;51.196;4.542;2023-04-25T14:41:25;19.30;42.70
80153;DHT22;69475;51.196;4.542;2023-04-25T14:43:52;19.30;42.70
80153;DHT22;69475;51.196;4.542;2023-04-25T14:46:22;19.30;42.80
80153;DHT22;69475;51.196;4.542;2023-04-25T14:48:49;19.20;42.70
80153;DHT22;69475;51.196;4.542;2023-04-25T14:51:15;19.30;42.40
80153;DHT22;69475;51.196;4.542;2023-04-25T14:53:41;19.20;42.50
80153;DHT22;69475;51.196;4.542;2023-04-25T14:56:07;19.20;42.40
80153;DHT22;69475;51.196;4.542;2023-04-25T14:58:34;19.30;42.30
80153;DHT22;69475;51.196;4.542;2023-04-25T15:01:00;19.20;42.10
80153;DHT22;69475;51.196;4.542;2023-04-25T15:03:26;19.30;42.10
80153;DHT22;69475;51.196;4.542;2023-04-25T15:05:53;19.30;42.00
80153;DHT22;69475;51.196;4.542;2023-04-25T15:08:20;19.30;42.00
80153;DHT22;69475;51.196;4.542;2023-04-25T15:10:46;19.30;42.00
80153;DHT22;69475;51.196;4.542;2023-04-25T15:13:12;19.40;42.40
80153;DHT22;69475;51.196;4.542;2023-04-25T15:15:38;19.30;42.70
80153;DHT22;69475;51.196;4.542;2023-04-25T15:18:03;19.30;43.20
80153;DHT22;69475;51.196;4.542;2023-04-25T15:20:29;19.30;43.70
80153;DHT22;69475;51.196;4.542;2023-04-25T15:22:55;19.40;43.70
80153;DHT22;69475;51.196;4.542;2023-04-25T15:25:21;19.40;43.80
80153;DHT22;69475;51.196;4.542;2023-04-25T15:27:47;19.50;43.60
80153;DHT22;69475;51.196;4.542;2023-04-25T15:30:15;19.50;43.60
80153;DHT22;69475;51.196;4.542;2023-04-25T15:32:42;19.50;43.60
80153;DHT22;69475;51.196;4.542;2023-04-25T15:35:08;19.50;43.90
80153;DHT22;69475;51.196;4.542;2023-04-25T15:37:35;19.50;43.90